Time;durP1;ratioP1;P1;durP2;ratioP2;P2;SDS_P1;SDS_P2;PMS_P1;PMS_P2;Temp;Humidity;BMP_temperature;BMP_pressure;BME280_temperature;BME280_humidity;BME280_pressure;Samples;Min_cycle;Max_cycle;Signal;HPM_P1;HPM_P2
2022/03/09 00:02:21;;;;;;;6.88;4.20;;;;;;;;;;5103747;28;20083;-75
2022/03/09 00:04:48;;;;;;;8.65;3.60;;;;;;;;;;5105340;28;20139;-76
2022/03/09 00:07:14;;;;;;;6.30;4.00;;;;;;;;;;5110857;28;20024;-76
2022/03/09 00:09:40;;;;;;;8.00;3.53;;;;;;;;;;5105418;28;20039;-75
2022/03/09 00:12:06;;;;;;;7.13;4.43;;;;;;;;;;5110460;28;20028;-75
2022/03/09 00:14:32;;;;;;;7.40;4.93;;;;;;;;;;5101014;28;20036;-75
2022/03/09 00:16:58;;;;;;;10.13;5.15;;;;;;;;;;5083253;28;20028;-76
2022/03/09 00:19:25;;;;;;;7.63;4.93;;;;;;;;;;5109231;28;20034;-75
2022/03/09 00:21:51;;;;;;;10.93;5.03;;;;;;;;;;5097890;28;20127;-75
2022/03/09 00:24:18;;;;;;;6.40;4.10;;;;;;;;;;5100733;27;20055;-75
2022/03/09 00:26:44;;;;;;;11.75;4.40;;;;;;;;;;5095537;28;20608;-75
2022/03/09 00:29:10;;;;;;;9.05;4.88;;;;;;;;;;5099200;27;20161;-75
2022/03/09 00:31:36;;;;;;;8.73;4.22;;;;;;;;;;5102624;28;20074;-75
2022/03/09 00:34:03;;;;;;;6.60;3.70;;;;;;;;;;5102440;27;20040;-75
2022/03/09 00:36:29;;;;;;;4.97;3.60;;;;;;;;;;5086159;27;20023;-75
2022/03/09 00:38:56;;;;;;;6.97;3.60;;;;;;;;;;5106750;28;20510;-75
2022/03/09 00:41:22;;;;;;;6.72;3.40;;;;;;;;;;5092449;28;20099;-75
2022/03/09 00:43:48;;;;;;;7.68;3.88;;;;;;;;;;5102716;28;20032;-75
2022/03/09 00:46:14;;;;;;;4.97;3.83;;;;;;;;;;5110841;27;20043;-76
2022/03/09 00:48:40;;;;;;;8.45;4.30;;;;;;;;;;5109643;27;20099;-76
2022/03/09 00:51:07;;;;;;;6.10;3.97;;;;;;;;;;5096956;28;20038;-75
2022/03/09 00:53:33;;;;;;;10.52;3.53;;;;;;;;;;5085099;27;20034;-75
2022/03/09 00:55:59;;;;;;;9.02;3.95;;;;;;;;;;5095909;28;20475;-75
2022/03/09 00:58:25;;;;;;;8.00;4.38;;;;;;;;;;5098686;27;20076;-75
2022/03/09 01:00:51;;;;;;;7.20;4.53;;;;;;;;;;5101530;28;20028;-75
2022/03/09 01:03:17;;;;;;;7.20;4.40;;;;;;;;;;5109223;28;20019;-76
2022/03/09 01:05:43;;;;;;;6.57;4.43;;;;;;;;;;5080134;28;20039;-75
2022/03/09 01:08:10;;;;;;;7.75;5.07;;;;;;;;;;5097492;28;20028;-75
2022/03/09 01:10:36;;;;;;;5.25;4.07;;;;;;;;;;5105098;28;20526;-75
2022/03/09 01:13:02;;;;;;;9.73;4.97;;;;;;;;;;5109497;28;20051;-75
2022/03/09 01:15:28;;;;;;;6.05;4.18;;;;;;;;;;5099760;27;20041;-74
2022/03/09 01:17:54;;;;;;;12.70;4.65;;;;;;;;;;5102269;27;20082;-74
2022/03/09 01:20:20;;;;;;;11.40;4.50;;;;;;;;;;5098043;28;20032;-75
2022/03/09 01:22:46;;;;;;;7.75;4.00;;;;;;;;;;5105923;28;20180;-74
2022/03/09 01:25:12;;;;;;;6.80;4.32;;;;;;;;;;5102986;28;20035;-74
2022/03/09 01:27:39;;;;;;;8.85;4.85;;;;;;;;;;5075612;28;20027;-75
2022/03/09 01:30:05;;;;;;;7.63;4.60;;;;;;;;;;5106474;27;20055;-75
2022/03/09 01:32:31;;;;;;;8.10;4.55;;;;;;;;;;5099979;28;20032;-75
2022/03/09 01:34:57;;;;;;;10.95;4.57;;;;;;;;;;5095318;28;20377;-74
2022/03/09 01:37:23;;;;;;;9.07;5.20;;;;;;;;;;5074111;28;20032;-74
2022/03/09 01:39:50;;;;;;;10.20;5.18;;;;;;;;;;5104037;28;20050;-74
2022/03/09 01:42:16;;;;;;;10.88;4.88;;;;;;;;;;5104832;28;20326;-74
2022/03/09 01:44:42;;;;;;;7.53;4.97;;;;;;;;;;5102564;28;20108;-74
2022/03/09 01:47:08;;;;;;;7.97;4.78;;;;;;;;;;5111092;28;20475;-74
2022/03/09 01:49:36;;;;;;;11.82;5.15;;;;;;;;;;5107943;28;20056;-74
2022/03/09 01:52:03;;;;;;;7.60;4.10;;;;;;;;;;5096167;28;20400;-74
2022/03/09 01:54:30;;;;;;;8.55;4.88;;;;;;;;;;5097552;28;20478;-75
2022/03/09 01:56:57;;;;;;;8.52;4.82;;;;;;;;;;5106469;28;20032;-74
2022/03/09 01:59:23;;;;;;;9.93;5.07;;;;;;;;;;5103668;27;20040;-74
2022/03/09 02:01:49;;;;;;;7.85;4.80;;;;;;;;;;5097764;28;20024;-74
2022/03/09 02:04:15;;;;;;;13.98;5.07;;;;;;;;;;5103827;28;20089;-75
2022/03/09 02:06:41;;;;;;;6.53;4.80;;;;;;;;;;5100118;28;20036;-75
2022/03/09 02:11:54;;;;;;;9.07;5.55;;;;;;;;;;5098349;28;20083;-74
2022/03/09 02:14:31;;;;;;;8.65;4.53;;;;;;;;;;5102371;28;20032;-74
2022/03/09 02:16:59;;;;;;;7.65;4.70;;;;;;;;;;5101317;28;20740;-75
2022/03/09 02:19:25;;;;;;;6.80;4.47;;;;;;;;;;5097580;27;20060;-75
2022/03/09 02:22:14;;;;;;;10.43;4.97;;;;;;;;;;5098247;28;20038;-75
2022/03/09 02:24:40;;;;;;;8.23;6.28;;;;;;;;;;5089237;28;20053;-75
2022/03/09 02:27:06;;;;;;;8.80;5.32;;;;;;;;;;5085754;28;20032;-75
2022/03/09 02:29:32;;;;;;;10.48;4.85;;;;;;;;;;5108549;28;20054;-75
2022/03/09 02:31:59;;;;;;;9.82;5.00;;;;;;;;;;5094976;27;20032;-75
2022/03/09 02:34:26;;;;;;;9.82;5.63;;;;;;;;;;5101526;27;20024;-75
2022/03/09 02:36:52;;;;;;;11.45;5.85;;;;;;;;;;5112697;27;20080;-75
2022/03/09 02:39:18;;;;;;;9.52;4.82;;;;;;;;;;5103220;28;20075;-75
2022/03/09 02:41:44;;;;;;;11.82;5.68;;;;;;;;;;5084424;28;20467;-75
2022/03/09 02:44:10;;;;;;;9.48;5.40;;;;;;;;;;5089774;28;20035;-75
2022/03/09 02:46:36;;;;;;;12.00;5.07;;;;;;;;;;5104936;27;20059;-75
2022/03/09 02:49:02;;;;;;;10.75;5.75;;;;;;;;;;5110278;28;20047;-75
2022/03/09 02:51:28;;;;;;;25.73;5.80;;;;;;;;;;5075584;28;20063;-74
2022/03/09 02:53:54;;;;;;;10.27;5.80;;;;;;;;;;5097283;28;20058;-74
2022/03/09 02:56:20;;;;;;;12.88;6.13;;;;;;;;;;5094471;27;20460;-74
2022/03/09 02:58:46;;;;;;;7.55;4.72;;;;;;;;;;5070754;28;20479;-75
2022/03/09 03:01:14;;;;;;;10.88;5.85;;;;;;;;;;5099630;28;20028;-75
2022/03/09 03:03:43;;;;;;;10.07;5.55;;;;;;;;;;5105926;28;20667;-75
2022/03/09 03:06:09;;;;;;;9.90;5.63;;;;;;;;;;5101180;28;20031;-75
2022/03/09 03:08:37;;;;;;;10.10;5.47;;;;;;;;;;5096586;28;20028;-75
2022/03/09 03:11:04;;;;;;;8.23;4.80;;;;;;;;;;5102501;28;20032;-75
2022/03/09 03:13:30;;;;;;;7.90;5.28;;;;;;;;;;5085038;28;20032;-75
2022/03/09 03:15:56;;;;;;;10.50;6.18;;;;;;;;;;5105164;27;20020;-75
2022/03/09 03:18:22;;;;;;;9.75;4.57;;;;;;;;;;5098615;28;20035;-75
2022/03/09 03:20:54;;;;;;;9.20;5.38;;;;;;;;;;5097850;28;20254;-75
2022/03/09 03:23:20;;;;;;;9.15;5.10;;;;;;;;;;5081478;28;20388;-75
2022/03/09 03:25:46;;;;;;;9.38;5.75;;;;;;;;;;5102453;28;20081;-75
2022/03/09 03:28:12;;;;;;;9.38;5.68;;;;;;;;;;5097252;28;20073;-75
2022/03/09 03:30:38;;;;;;;9.82;6.57;;;;;;;;;;5098926;28;20049;-75
2022/03/09 03:33:04;;;;;;;8.88;5.28;;;;;;;;;;5098043;28;20032;-75
2022/03/09 03:35:30;;;;;;;11.63;5.55;;;;;;;;;;5103317;28;20488;-75
2022/03/09 03:37:56;;;;;;;10.00;5.60;;;;;;;;;;5119560;27;20047;-75
2022/03/09 03:40:22;;;;;;;12.82;6.28;;;;;;;;;;5101420;28;20047;-75
2022/03/09 03:42:48;;;;;;;8.55;6.13;;;;;;;;;;5085894;28;20031;-75
2022/03/09 03:45:14;;;;;;;9.18;5.53;;;;;;;;;;5097943;28;20044;-75
2022/03/09 03:47:40;;;;;;;8.43;5.28;;;;;;;;;;5105217;28;20088;-75
2022/03/09 03:50:07;;;;;;;8.88;5.35;;;;;;;;;;5099238;28;20038;-75
2022/03/09 03:52:33;;;;;;;10.73;5.47;;;;;;;;;;5106259;28;20036;-75
2022/03/09 03:54:59;;;;;;;9.98;6.32;;;;;;;;;;5102846;28;20131;-75
2022/03/09 03:57:25;;;;;;;12.30;5.93;;;;;;;;;;5095273;28;20085;-75
2022/03/09 03:59:51;;;;;;;9.85;5.75;;;;;;;;;;5100469;28;20032;-75
2022/03/09 04:02:17;;;;;;;10.68;5.85;;;;;;;;;;5107013;28;20039;-75
2022/03/09 04:04:43;;;;;;;14.05;5.95;;;;;;;;;;5082939;28;20582;-76
2022/03/09 04:07:09;;;;;;;9.80;4.80;;;;;;;;;;5077794;28;20028;-75
2022/03/09 04:09:35;;;;;;;11.13;5.60;;;;;;;;;;5104970;28;20118;-75
2022/03/09 04:12:02;;;;;;;12.65;6.13;;;;;;;;;;5101601;28;20024;-75
2022/03/09 04:14:28;;;;;;;13.30;5.85;;;;;;;;;;5073837;28;20081;-75
2022/03/09 04:16:54;;;;;;;13.02;5.40;;;;;;;;;;5096636;28;20024;-75
2022/03/09 04:19:20;;;;;;;11.38;5.72;;;;;;;;;;5077985;28;20483;-75
2022/03/09 04:21:46;;;;;;;14.70;6.10;;;;;;;;;;5103284;28;20425;-75
2022/03/09 04:24:12;;;;;;;10.90;5.63;;;;;;;;;;5105017;28;20052;-75
2022/03/09 04:26:38;;;;;;;14.27;6.80;;;;;;;;;;5098667;28;20097;-75
2022/03/09 04:29:04;;;;;;;11.00;5.88;;;;;;;;;;5098424;28;20496;-75
2022/03/09 04:31:30;;;;;;;11.98;5.97;;;;;;;;;;5092704;28;20029;-75
2022/03/09 04:33:56;;;;;;;14.73;5.80;;;;;;;;;;5083981;28;20047;-76
2022/03/09 04:36:22;;;;;;;13.90;6.93;;;;;;;;;;5079916;28;20027;-76
2022/03/09 04:38:49;;;;;;;8.60;5.30;;;;;;;;;;5111359;28;20028;-76
2022/03/09 04:41:15;;;;;;;9.52;5.25;;;;;;;;;;5106356;28;20023;-76
2022/03/09 04:43:41;;;;;;;14.63;6.40;;;;;;;;;;5112149;28;20032;-75
2022/03/09 04:46:07;;;;;;;17.30;5.80;;;;;;;;;;5101743;28;20056;-76
2022/03/09 04:48:33;;;;;;;15.88;5.82;;;;;;;;;;5102319;28;20023;-75
2022/03/09 04:51:02;;;;;;;10.20;5.88;;;;;;;;;;5096620;27;20030;-76
2022/03/09 04:53:28;;;;;;;13.52;6.32;;;;;;;;;;5101034;28;20024;-76
2022/03/09 04:55:55;;;;;;;8.88;5.40;;;;;;;;;;5098657;27;20067;-76
2022/03/09 04:58:21;;;;;;;13.52;6.57;;;;;;;;;;5098663;28;20028;-75
2022/03/09 05:00:47;;;;;;;8.95;5.40;;;;;;;;;;5083034;28;20126;-76
2022/03/09 05:03:13;;;;;;;15.88;5.68;;;;;;;;;;5089139;28;20096;-76
2022/03/09 05:05:39;;;;;;;12.60;6.78;;;;;;;;;;5100537;28;20111;-76
2022/03/09 05:08:05;;;;;;;7.82;5.38;;;;;;;;;;5110111;28;20024;-76
2022/03/09 05:10:31;;;;;;;9.23;5.57;;;;;;;;;;5103597;28;20035;-76
2022/03/09 05:12:57;;;;;;;14.45;6.10;;;;;;;;;;5104449;28;20035;-76
2022/03/09 05:15:23;;;;;;;11.55;5.85;;;;;;;;;;5096175;28;20808;-75
2022/03/09 05:17:50;;;;;;;13.45;6.20;;;;;;;;;;5104016;28;20152;-76
2022/03/09 05:20:16;;;;;;;11.18;5.70;;;;;;;;;;5110254;28;20109;-75
2022/03/09 05:22:42;;;;;;;10.10;5.72;;;;;;;;;;5108263;28;20032;-75
2022/03/09 05:25:09;;;;;;;10.25;5.80;;;;;;;;;;5083742;27;20059;-76
2022/03/09 05:27:35;;;;;;;9.73;5.78;;;;;;;;;;5095176;28;20114;-75
2022/03/09 05:30:01;;;;;;;10.40;6.13;;;;;;;;;;5103429;27;20023;-75
2022/03/09 05:32:27;;;;;;;11.50;5.15;;;;;;;;;;5104634;28;20070;-75
2022/03/09 05:34:53;;;;;;;10.85;6.53;;;;;;;;;;5112667;28;20036;-74
2022/03/09 05:37:21;;;;;;;10.35;6.43;;;;;;;;;;5103534;27;20028;-75
2022/03/09 05:39:47;;;;;;;11.25;5.65;;;;;;;;;;5105164;28;20396;-76
2022/03/09 05:42:13;;;;;;;11.98;6.40;;;;;;;;;;5108859;28;20115;-76
2022/03/09 05:44:39;;;;;;;12.23;6.00;;;;;;;;;;5111314;28;20024;-74
2022/03/09 05:47:06;;;;;;;31.83;16.67;;;;;;;;;;5096462;27;20491;-76
2022/03/09 05:49:32;;;;;;;41.67;21.15;;;;;;;;;;5099053;28;20024;-75
2022/03/09 05:51:58;;;;;;;22.80;10.80;;;;;;;;;;5101794;28;20169;-75
2022/03/09 05:54:24;;;;;;;10.88;6.65;;;;;;;;;;5089903;28;20042;-73
2022/03/09 05:56:50;;;;;;;10.82;6.05;;;;;;;;;;5110027;28;20024;-73
2022/03/09 05:59:17;;;;;;;10.50;6.30;;;;;;;;;;5101076;28;20039;-76
2022/03/09 06:01:43;;;;;;;15.38;6.82;;;;;;;;;;5075744;28;20038;-76
2022/03/09 06:04:09;;;;;;;11.50;6.97;;;;;;;;;;5099763;28;20035;-76
2022/03/09 06:06:35;;;;;;;10.43;5.85;;;;;;;;;;5106890;27;20024;-76
2022/03/09 06:09:02;;;;;;;13.43;6.13;;;;;;;;;;5104650;28;20528;-76
2022/03/09 06:11:28;;;;;;;11.07;5.80;;;;;;;;;;5103062;28;21858;-76
2022/03/09 06:13:54;;;;;;;12.35;5.95;;;;;;;;;;5093040;28;20108;-76
2022/03/09 06:16:20;;;;;;;52.08;19.70;;;;;;;;;;5086288;28;20051;-75
2022/03/09 06:18:46;;;;;;;66.90;37.85;;;;;;;;;;5102656;27;20036;-75
2022/03/09 06:21:13;;;;;;;15.43;7.57;;;;;;;;;;5107170;28;20028;-76
2022/03/09 06:23:39;;;;;;;10.57;6.70;;;;;;;;;;5077971;28;20051;-76
2022/03/09 06:26:05;;;;;;;16.65;6.47;;;;;;;;;;5099442;27;20035;-76
2022/03/09 06:28:33;;;;;;;12.30;6.60;;;;;;;;;;5106084;28;20035;-76
2022/03/09 06:30:59;;;;;;;11.93;6.03;;;;;;;;;;5104730;27;20114;-76
2022/03/09 06:33:26;;;;;;;12.40;7.35;;;;;;;;;;5108546;28;20028;-76
2022/03/09 06:35:52;;;;;;;10.85;6.35;;;;;;;;;;5103495;27;20083;-76
2022/03/09 06:38:19;;;;;;;15.70;5.95;;;;;;;;;;5078632;28;20031;-76
2022/03/09 06:40:45;;;;;;;11.48;6.32;;;;;;;;;;5103618;28;20024;-76
2022/03/09 06:43:11;;;;;;;14.32;7.10;;;;;;;;;;5102028;28;20027;-76
2022/03/09 06:45:37;;;;;;;12.48;6.50;;;;;;;;;;5107961;28;20040;-76
2022/03/09 06:48:04;;;;;;;12.23;6.05;;;;;;;;;;5103032;28;20486;-76
2022/03/09 06:50:31;;;;;;;10.43;5.63;;;;;;;;;;5102734;27;20023;-76
2022/03/09 06:52:57;;;;;;;12.50;6.80;;;;;;;;;;5095330;28;20028;-76
2022/03/09 06:55:23;;;;;;;12.07;6.22;;;;;;;;;;5105042;28;20023;-76
2022/03/09 06:57:49;;;;;;;8.93;6.05;;;;;;;;;;5103083;28;20077;-76
2022/03/09 07:00:15;;;;;;;12.98;5.90;;;;;;;;;;5105168;28;20028;-75
2022/03/09 07:02:42;;;;;;;26.73;13.65;;;;;;;;;;5104925;27;20378;-76
2022/03/09 07:05:09;;;;;;;12.75;7.03;;;;;;;;;;5090605;28;20015;-77
2022/03/09 07:07:35;;;;;;;10.70;6.50;;;;;;;;;;5098432;28;20479;-77
2022/03/09 07:10:01;;;;;;;10.68;6.45;;;;;;;;;;5102389;28;20031;-75
2022/03/09 07:12:27;;;;;;;11.88;6.03;;;;;;;;;;5099762;28;20036;-77
2022/03/09 07:14:53;;;;;;;8.07;5.47;;;;;;;;;;5101297;27;20020;-77
2022/03/09 07:17:19;;;;;;;7.63;5.32;;;;;;;;;;5100115;28;20058;-76
2022/03/09 07:19:45;;;;;;;10.13;5.70;;;;;;;;;;5074930;28;20165;-76
2022/03/09 07:22:12;;;;;;;11.98;6.32;;;;;;;;;;5100158;27;20433;-76
2022/03/09 07:24:38;;;;;;;10.40;5.97;;;;;;;;;;5091526;28;20043;-76
2022/03/09 07:27:04;;;;;;;11.45;6.57;;;;;;;;;;5100691;27;20043;-75
2022/03/09 07:29:30;;;;;;;34.50;17.45;;;;;;;;;;5100468;28;20048;-76
2022/03/09 07:31:56;;;;;;;31.27;18.83;;;;;;;;;;5100753;28;20425;-75
2022/03/09 07:34:22;;;;;;;11.27;6.55;;;;;;;;;;5096248;28;20032;-77
2022/03/09 07:36:49;;;;;;;10.20;5.60;;;;;;;;;;5106654;28;20572;-77
2022/03/09 07:39:15;;;;;;;15.98;5.65;;;;;;;;;;5101670;28;20035;-77
2022/03/09 07:41:41;;;;;;;9.23;5.78;;;;;;;;;;5103555;28;21711;-77
2022/03/09 07:44:08;;;;;;;8.48;5.80;;;;;;;;;;5100187;28;20030;-77
2022/03/09 07:46:34;;;;;;;15.85;6.90;;;;;;;;;;5099384;28;20047;-77
2022/03/09 07:49:00;;;;;;;9.93;5.68;;;;;;;;;;5100504;28;20035;-77
2022/03/09 07:51:26;;;;;;;13.23;6.05;;;;;;;;;;5101070;28;20055;-77
2022/03/09 07:53:52;;;;;;;14.40;6.93;;;;;;;;;;5101404;28;20032;-76
2022/03/09 07:56:19;;;;;;;11.93;6.63;;;;;;;;;;5100528;28;20100;-76
2022/03/09 07:58:45;;;;;;;9.88;5.93;;;;;;;;;;5079776;28;20136;-76
2022/03/09 08:01:11;;;;;;;12.98;6.32;;;;;;;;;;5101085;28;20039;-76
2022/03/09 08:03:39;;;;;;;10.18;5.57;;;;;;;;;;5071677;28;20082;-76
2022/03/09 08:06:05;;;;;;;14.93;6.05;;;;;;;;;;5100221;28;20032;-77
2022/03/09 08:08:31;;;;;;;14.02;5.88;;;;;;;;;;5073613;28;20187;-78
2022/03/09 08:10:58;;;;;;;11.98;6.55;;;;;;;;;;5105610;28;20429;-78
2022/03/09 08:13:24;;;;;;;12.70;6.22;;;;;;;;;;5108712;28;20028;-77
2022/03/09 08:15:50;;;;;;;10.60;5.63;;;;;;;;;;5101077;28;20114;-78
2022/03/09 08:18:16;;;;;;;7.95;5.70;;;;;;;;;;5091448;28;20078;-77
2022/03/09 08:20:42;;;;;;;11.70;6.47;;;;;;;;;;5108183;28;20027;-77
2022/03/09 08:23:08;;;;;;;12.50;6.13;;;;;;;;;;5104421;28;20035;-77
2022/03/09 08:25:34;;;;;;;16.13;6.38;;;;;;;;;;5103417;28;20020;-76
2022/03/09 08:28:01;;;;;;;7.88;6.25;;;;;;;;;;5084242;28;22187;-76
2022/03/09 08:30:27;;;;;;;9.55;5.88;;;;;;;;;;5107789;28;20118;-76
2022/03/09 08:32:53;;;;;;;113.70;56.13;;;;;;;;;;5102602;28;20028;-79
2022/03/09 08:35:19;;;;;;;12.20;7.15;;;;;;;;;;5104572;28;20040;-78
2022/03/09 08:37:46;;;;;;;9.13;5.82;;;;;;;;;;5100500;28;20154;-77
2022/03/09 08:40:12;;;;;;;8.82;6.10;;;;;;;;;;5104152;27;20027;-77
2022/03/09 08:42:39;;;;;;;10.48;5.72;;;;;;;;;;5106737;27;20559;-77
2022/03/09 08:45:05;;;;;;;7.68;5.35;;;;;;;;;;5112411;28;20035;-78
2022/03/09 08:47:31;;;;;;;10.77;6.43;;;;;;;;;;5103361;27;20040;-78
2022/03/09 08:49:57;;;;;;;11.55;5.78;;;;;;;;;;5107626;28;20028;-79
2022/03/09 08:52:24;;;;;;;8.82;5.55;;;;;;;;;;5080618;28;20438;-78
2022/03/09 08:54:56;;;;;;;11.82;6.10;;;;;;;;;;5096601;28;20040;-79
2022/03/09 08:57:22;;;;;;;14.98;6.10;;;;;;;;;;5106274;28;20172;-78
2022/03/09 08:59:48;;;;;;;10.23;5.80;;;;;;;;;;5101676;28;20051;-79
2022/03/09 09:02:15;;;;;;;13.00;6.00;;;;;;;;;;5101789;28;20031;-79
2022/03/09 09:04:41;;;;;;;9.68;5.93;;;;;;;;;;5100642;28;20032;-79
2022/03/09 09:07:07;;;;;;;9.05;5.63;;;;;;;;;;5102596;27;20024;-79
2022/03/09 09:09:34;;;;;;;11.43;6.13;;;;;;;;;;5109033;28;20042;-79
2022/03/09 09:12:01;;;;;;;12.18;5.50;;;;;;;;;;5105199;27;20028;-78
2022/03/09 09:14:28;;;;;;;11.10;6.18;;;;;;;;;;5100213;28;20031;-77
2022/03/09 09:16:54;;;;;;;9.60;6.35;;;;;;;;;;5080343;28;20039;-77
2022/03/09 09:19:20;;;;;;;13.00;6.80;;;;;;;;;;5099060;28;20067;-78
2022/03/09 09:21:46;;;;;;;10.63;5.88;;;;;;;;;;5104628;28;20150;-78
2022/03/09 09:24:13;;;;;;;9.38;6.22;;;;;;;;;;5105989;27;20197;-76
2022/03/09 09:26:39;;;;;;;11.75;5.35;;;;;;;;;;5102005;27;20028;-77
2022/03/09 09:29:06;;;;;;;7.75;5.80;;;;;;;;;;5107528;28;20084;-77
2022/03/09 09:31:32;;;;;;;11.45;7.07;;;;;;;;;;5101195;28;20027;-77
2022/03/09 09:33:58;;;;;;;13.13;6.78;;;;;;;;;;5086446;28;20043;-77
2022/03/09 09:36:25;;;;;;;11.07;7.10;;;;;;;;;;5096261;28;20039;-78
2022/03/09 09:38:51;;;;;;;12.18;6.93;;;;;;;;;;5106738;28;20086;-77
2022/03/09 09:41:19;;;;;;;14.20;6.40;;;;;;;;;;5095627;27;20468;-76
2022/03/09 09:43:46;;;;;;;12.65;5.93;;;;;;;;;;5100546;28;20055;-76
2022/03/09 09:46:14;;;;;;;9.35;6.13;;;;;;;;;;5099509;28;20498;-76
2022/03/09 09:48:41;;;;;;;10.43;6.15;;;;;;;;;;5101665;27;20379;-77
2022/03/09 09:51:08;;;;;;;9.55;6.50;;;;;;;;;;5105044;28;20424;-77
2022/03/09 09:53:35;;;;;;;8.55;5.80;;;;;;;;;;5104546;28;20036;-78
2022/03/09 09:56:02;;;;;;;10.10;6.45;;;;;;;;;;5098339;28;20028;-78
2022/03/09 09:58:28;;;;;;;10.68;6.25;;;;;;;;;;5103461;28;20498;-78
2022/03/09 10:00:55;;;;;;;8.68;6.30;;;;;;;;;;5103029;28;20027;-77
2022/03/09 10:03:21;;;;;;;9.32;5.57;;;;;;;;;;5108662;28;20073;-77
2022/03/09 10:05:47;;;;;;;9.55;6.85;;;;;;;;;;5095780;28;20391;-79
2022/03/09 10:08:16;;;;;;;9.30;6.55;;;;;;;;;;5102127;28;20055;-78
2022/03/09 10:10:54;;;;;;;9.80;6.10;;;;;;;;;;5110588;27;20118;-77
2022/03/09 10:13:22;;;;;;;17.23;9.43;;;;;;;;;;5104761;28;20023;-79
2022/03/09 10:15:49;;;;;;;10.88;6.00;;;;;;;;;;5102289;28;20036;-78
2022/03/09 10:18:17;;;;;;;9.05;5.63;;;;;;;;;;5097192;28;20031;-75
2022/03/09 10:20:44;;;;;;;10.98;6.18;;;;;;;;;;5074450;28;20035;-76
2022/03/09 10:23:10;;;;;;;8.32;6.10;;;;;;;;;;5095927;28;20089;-76
2022/03/09 10:25:38;;;;;;;7.22;5.47;;;;;;;;;;5101006;27;20027;-77
2022/03/09 10:28:08;;;;;;;11.52;5.78;;;;;;;;;;5102190;27;20036;-76
2022/03/09 10:30:35;;;;;;;9.50;6.55;;;;;;;;;;5103473;28;20351;-76
2022/03/09 10:33:02;;;;;;;9.77;6.40;;;;;;;;;;5101984;28;20107;-75
2022/03/09 10:35:31;;;;;;;7.88;6.43;;;;;;;;;;5108014;28;20016;-76
2022/03/09 10:38:04;;;;;;;9.38;5.97;;;;;;;;;;5097274;27;20036;-75
2022/03/09 10:40:31;;;;;;;9.32;5.60;;;;;;;;;;5100732;27;20034;-75
2022/03/09 10:43:10;;;;;;;8.52;6.18;;;;;;;;;;5086390;28;20031;-76
2022/03/09 10:45:37;;;;;;;12.35;5.82;;;;;;;;;;5098756;28;20048;-75
2022/03/09 10:48:06;;;;;;;10.75;5.82;;;;;;;;;;5105361;28;20050;-76
2022/03/09 10:50:32;;;;;;;8.75;6.18;;;;;;;;;;5091760;28;20024;-76
2022/03/09 10:52:59;;;;;;;9.13;5.88;;;;;;;;;;5097548;28;20028;-76
2022/03/09 10:55:32;;;;;;;8.90;6.05;;;;;;;;;;5108640;28;20028;-76
2022/03/09 10:58:10;;;;;;;8.23;5.90;;;;;;;;;;5101456;27;20103;-76
2022/03/09 11:00:36;;;;;;;11.60;5.68;;;;;;;;;;5087512;28;20072;-76
2022/03/09 11:03:10;;;;;;;10.95;6.50;;;;;;;;;;5103142;27;20032;-76
2022/03/09 11:05:36;;;;;;;8.52;5.63;;;;;;;;;;5104318;28;20030;-77
2022/03/09 11:08:03;;;;;;;8.23;6.07;;;;;;;;;;5107476;28;20047;-76
2022/03/09 11:10:29;;;;;;;13.93;6.13;;;;;;;;;;5093257;28;20437;-76
2022/03/09 11:12:56;;;;;;;8.98;5.70;;;;;;;;;;5101108;28;20027;-76
2022/03/09 11:15:23;;;;;;;11.75;5.93;;;;;;;;;;5108057;28;20486;-76
2022/03/09 11:17:49;;;;;;;6.65;5.65;;;;;;;;;;5076961;28;20428;-76
2022/03/09 11:20:16;;;;;;;9.75;5.68;;;;;;;;;;5106104;28;20039;-76
2022/03/09 11:22:43;;;;;;;10.02;5.90;;;;;;;;;;5104640;27;20114;-76
2022/03/09 11:25:09;;;;;;;9.50;6.68;;;;;;;;;;5104609;28;20020;-77
2022/03/09 11:27:42;;;;;;;54.38;20.80;;;;;;;;;;5105916;28;20096;-77
2022/03/09 11:30:21;;;;;;;11.75;8.05;;;;;;;;;;5100432;27;20077;-76
2022/03/09 11:32:49;;;;;;;10.10;6.40;;;;;;;;;;5098243;28;20137;-77
2022/03/09 11:35:30;;;;;;;8.60;6.82;;;;;;;;;;5104063;28;20031;-76
2022/03/09 11:37:57;;;;;;;10.23;6.43;;;;;;;;;;5101612;28;20340;-76
2022/03/09 11:40:23;;;;;;;11.13;6.28;;;;;;;;;;5090645;28;20086;-76
2022/03/09 11:42:49;;;;;;;9.10;7.03;;;;;;;;;;5098735;28;20032;-76
2022/03/09 11:45:20;;;;;;;7.82;6.50;;;;;;;;;;5107343;28;20086;-76
2022/03/09 11:48:08;;;;;;;9.20;6.82;;;;;;;;;;5099110;28;20024;-76
2022/03/09 11:50:56;;;;;;;9.60;6.63;;;;;;;;;;5099404;28;20562;-76
2022/03/09 11:53:43;;;;;;;9.50;6.97;;;;;;;;;;5107573;28;20024;-76
2022/03/09 11:56:25;;;;;;;13.30;7.40;;;;;;;;;;5108168;28;20039;-77
2022/03/09 11:59:10;;;;;;;10.15;6.47;;;;;;;;;;5100153;28;20438;-77
2022/03/09 12:01:55;;;;;;;11.13;7.60;;;;;;;;;;5104176;28;20024;-77
2022/03/09 12:04:39;;;;;;;10.18;7.43;;;;;;;;;;5108692;28;20160;-77
2022/03/09 12:07:06;;;;;;;12.38;6.88;;;;;;;;;;5101471;28;20505;-77
2022/03/09 12:09:50;;;;;;;9.95;6.72;;;;;;;;;;5102024;28;20030;-78
2022/03/09 12:12:16;;;;;;;9.07;6.63;;;;;;;;;;5100743;28;20027;-77
2022/03/09 12:15:01;;;;;;;10.18;6.70;;;;;;;;;;5106861;28;20402;-76
2022/03/09 12:17:31;;;;;;;10.43;7.05;;;;;;;;;;5085636;28;20469;-76
2022/03/09 12:20:17;;;;;;;12.77;7.18;;;;;;;;;;5091569;28;20043;-77
2022/03/09 12:22:59;;;;;;;10.15;7.30;;;;;;;;;;5104346;28;20028;-77
2022/03/09 12:25:41;;;;;;;9.85;6.65;;;;;;;;;;5098928;28;20065;-79
2022/03/09 12:30:51;;;;;;;11.15;7.03;;;;;;;;;;5098226;28;20127;-78
2022/03/09 12:33:22;;;;;;;11.48;7.97;;;;;;;;;;5095389;28;20038;-73
2022/03/09 12:35:48;;;;;;;19.73;12.07;;;;;;;;;;5096079;28;20028;-74
2022/03/09 12:38:17;;;;;;;10.68;7.43;;;;;;;;;;5096343;28;20108;-74
2022/03/09 12:40:46;;;;;;;11.18;7.95;;;;;;;;;;5097025;28;20068;-75
2022/03/09 12:43:16;;;;;;;9.27;7.43;;;;;;;;;;5093151;28;20032;-77
2022/03/09 12:45:52;;;;;;;12.05;7.43;;;;;;;;;;5080208;28;20056;-78
2022/03/09 12:48:22;;;;;;;10.30;6.93;;;;;;;;;;5084830;28;20040;-79
2022/03/09 12:50:48;;;;;;;11.63;7.13;;;;;;;;;;5082841;28;20024;-80
2022/03/09 12:53:19;;;;;;;13.32;8.02;;;;;;;;;;5086268;28;20032;-79
2022/03/09 12:55:46;;;;;;;9.75;7.45;;;;;;;;;;5084407;28;20021;-78
2022/03/09 12:58:12;;;;;;;12.40;7.28;;;;;;;;;;5076092;28;20024;-79
2022/03/09 13:00:38;;;;;;;10.15;7.35;;;;;;;;;;5085329;28;20024;-79
2022/03/09 13:03:09;;;;;;;9.07;6.43;;;;;;;;;;5085820;28;20028;-79
2022/03/09 13:05:36;;;;;;;12.82;7.78;;;;;;;;;;5091001;28;20032;-80
2022/03/09 13:08:07;;;;;;;10.77;7.57;;;;;;;;;;5089064;28;20482;-79
2022/03/09 13:10:40;;;;;;;11.43;7.53;;;;;;;;;;5085399;28;20042;-77
2022/03/09 13:13:06;;;;;;;11.02;7.78;;;;;;;;;;5093875;28;20029;-79
2022/03/09 13:15:42;;;;;;;10.15;6.80;;;;;;;;;;5085841;28;20031;-79
2022/03/09 13:18:09;;;;;;;11.63;7.95;;;;;;;;;;5091759;28;20036;-79
2022/03/09 13:20:37;;;;;;;12.02;7.38;;;;;;;;;;5089338;28;20451;-79
2022/03/09 13:23:03;;;;;;;9.85;7.35;;;;;;;;;;5090489;28;20608;-79
2022/03/09 13:25:33;;;;;;;10.77;7.53;;;;;;;;;;5083832;28;20035;-79
2022/03/09 13:28:00;;;;;;;10.10;7.32;;;;;;;;;;5083189;28;20019;-76
2022/03/09 13:30:26;;;;;;;16.70;9.70;;;;;;;;;;5082670;28;20028;-76
2022/03/09 13:32:52;;;;;;;10.98;7.63;;;;;;;;;;5083541;28;20032;-78
2022/03/09 13:35:19;;;;;;;11.13;8.07;;;;;;;;;;5087822;28;20067;-76
2022/03/09 13:37:45;;;;;;;11.82;8.20;;;;;;;;;;5081700;28;20510;-77
2022/03/09 13:40:12;;;;;;;9.02;7.40;;;;;;;;;;5086654;28;20395;-77
2022/03/09 13:42:42;;;;;;;11.98;7.38;;;;;;;;;;5079415;28;20028;-78
2022/03/09 13:45:09;;;;;;;11.95;7.57;;;;;;;;;;5084100;28;20465;-77
2022/03/09 13:47:54;;;;;;;11.48;7.72;;;;;;;;;;5103233;27;20012;-78
2022/03/09 13:50:23;;;;;;;10.88;8.18;;;;;;;;;;5107141;28;20379;-78
2022/03/09 13:52:50;;;;;;;11.82;8.90;;;;;;;;;;5078601;28;20080;-77
2022/03/09 13:55:21;;;;;;;13.48;8.75;;;;;;;;;;5100735;28;20031;-77
2022/03/09 13:57:58;;;;;;;13.55;8.05;;;;;;;;;;5095270;28;20028;-77
2022/03/09 14:00:27;;;;;;;11.98;7.93;;;;;;;;;;5103636;28;20035;-77
2022/03/09 14:02:58;;;;;;;15.38;8.07;;;;;;;;;;5101076;28;20019;-77
2022/03/09 14:05:28;;;;;;;10.93;6.68;;;;;;;;;;5089418;28;20028;-79
2022/03/09 14:07:54;;;;;;;13.40;8.05;;;;;;;;;;5107459;28;20032;-79
2022/03/09 14:10:25;;;;;;;9.43;7.35;;;;;;;;;;5110185;28;20104;-78
2022/03/09 14:12:51;;;;;;;13.85;8.30;;;;;;;;;;5105774;27;20028;-77
2022/03/09 14:15:17;;;;;;;14.85;9.40;;;;;;;;;;5091623;28;20395;-77
2022/03/09 14:17:43;;;;;;;14.10;8.98;;;;;;;;;;5104702;28;20502;-77
2022/03/09 14:20:11;;;;;;;11.95;8.50;;;;;;;;;;5103941;28;20042;-78
2022/03/09 14:22:42;;;;;;;12.25;8.40;;;;;;;;;;5100538;28;20110;-78
2022/03/09 14:25:08;;;;;;;17.42;8.55;;;;;;;;;;5065709;28;20096;-78
2022/03/09 14:27:34;;;;;;;12.15;8.43;;;;;;;;;;5099986;28;20031;-77
2022/03/09 14:30:00;;;;;;;13.32;9.52;;;;;;;;;;5081479;28;20475;-79
2022/03/09 14:32:26;;;;;;;12.27;8.00;;;;;;;;;;5106439;27;20052;-80
2022/03/09 14:34:52;;;;;;;15.75;9.27;;;;;;;;;;5110605;27;20066;-76
2022/03/09 14:37:19;;;;;;;17.25;8.55;;;;;;;;;;5087433;28;20028;-76
2022/03/09 14:39:45;;;;;;;13.77;9.10;;;;;;;;;;5104097;28;20035;-75
2022/03/09 14:42:11;;;;;;;16.42;9.90;;;;;;;;;;5100890;28;20059;-75